メインページ
METAR-TAF:

METAR-TAF

空港 :

サスカトゥーン・ジョン・G・ディーフェンベーカー国際空港

サスカトゥーン, サスカチュワン州, カナダ

緯度: 52-10N, 経度: 106-41W, 海抜: 501m

現時点の気象観測

当レポートは1時間9分前の10:00(UTC)に作成
南/南西の風 6kt
気温 -8°C
湿度 85%
気圧 1006 hPa
視程: 24.1km
高度12000ftの雲は散在している
高度18000ftの千切れ雲あり

METAR: CYXE 221000Z 20006KT 15SM SCT120 BKN180 M08/M10 A2970 RMK AC3AC2 SLP092

時間: 05:09 (11:09 UTC)

予報

当レポートは5時間31分前の05:38(UTC)に作成
予報は22日の 06時(UTC)から 23日の 06時(UTC)まで有効
南西の風 6kt
視程: 10km
高度22000ftの雲はほとんどない
22日の 1500時(UTC)から
南/南西の風 6kt
視程: 10km
高度8000ftの雲はほとんどない
高度12000ftの雲は散在している
22日の 15時(UTC)から 22日の 19時(UTC)まで一時的に
高度8000ftの雲は散在している
高度12000ftの千切れ雲あり
22日の 1900時(UTC)から
南西の風 8kt
視程: 10km
高度10000ftの千切れ雲あり
22日の 20時(UTC)から 22日の 22時(UTC)まで徐々に
西/北西の風 15kt、最大25ktの突風を伴う
22日の 2200時(UTC)から
西/北西の風 15kt、最大25ktの突風を伴う
視程: 10km
高度1500ftの雲は散在している
高度6000ftの千切れ雲あり
22日の 22時(UTC)から 23日の 01時(UTC)まで一時的に
視程: 3.2km
高度1500ftの千切れ雲あり
高度6000ftの曇り
弱いにわか雪, 高い地吹雪
23日の 0100時(UTC)から
西/北西の風 15kt
視程: 10km
高度2000ftの雲はほとんどない

TAF: CYXE 220538Z 2206/2306 23006KT P6SM FEW220 FM221500 20006KT P6SM FEW080 SCT120 TEMPO 2215/2219 SCT080 BKN120 FM221900 22008KT P6SM BKN100 BECMG 2220/2222 30015G25KT FM222200 30015G25KT P6SM SCT015 BKN060 TEMPO 2222/2301 2SM -SHSN BLSN BKN015 OVC060 FM230100 30015KT P6SM FEW020 RMK NXT FCST BY 221200Z

4,000以上の空港の気象観測と天気予報(METAR報とTAF報)

利用可能な観測所は地図上に黄色い丸と赤い丸で示す。

丸の上にカーソルを重ねると観測所名を参照できる。

次にクリックすると気象観測と天気予報を参照できる。

マップの切り替え:黒色「×」印の緑ボタンをクリックして拡大、「-」印の緑ボタンをクリックして縮小、緑色の三角印をクリックして隣りの地図に切り替え


METAR-TAF: